Glory Ace — 3FAF9 — position and weather

sailwx.info

Track history (hours):
 
Tides and Currents Weather Stations Pressure Air Temp Water Temp Dewpoint Dewpoint Depression Visibility Wind Speed Wind Dir Waves Ship Positions

Glory Ace

Last reported at 2018-Sep-21 01:26 UTC. Time now 2018-Sep-21 02:09 UTC.
Position N 29°44' W 095°02'.

Length 190 m; draft 10.8 m.

Type: Cargo ship. MMSI: 357130000.

Date/timePositionNaut miles runAvg speedWind from/ knotsBaromVisibWave heightAir tempDewpointWater temp
2018-Sep-21 01:26N 29°44' W 095°02'3 7.7
2018-Sep-21 01:02N 29°46' W 095°05'0 9.3
2018-Sep-21 01:00N 29°46' W 095°05'5014182.3
2018-Sep-19 21:30N 43°49' E 007°47'501310196.4
2018-Sep-19 21:01N 29°43' W 095°01'0 7.2
2018-Sep-19 21:00N 29°43' W 095°01'5 9.3
2018-Sep-19 20:30N 29°39' W 094°58'511.8
2018-Sep-19 20:03N 29°35' W 094°56'111.3
2018-Sep-19 20:00N 29°34' W 094°55'1312.9
2018-Sep-19 19:00N 29°22' W 094°48'50185361.5
2018-Sep-19 18:04N 43°49' E 007°47'501199665.4
2018-Sep-19 18:00N 29°18' W 094°36'50115213.7
2018-Sep-19 17:03N 43°49' E 007°47'0 0.0
2018-Sep-19 17:00N 43°49' E 007°47'0 0.0
2018-Sep-19 16:30N 43°49' E 007°47'0 0.0
2018-Sep-19 15:03N 43°49' E 007°47'50084988.2
2018-Sep-19 14:03N 29°17' W 094°31'0 0.0
2018-Sep-19 13:30N 29°17' W 094°31'0 0.0
2018-Sep-19 10:30N 29°17' W 094°31'0 0.0
2018-Sep-19 10:00N 29°17' W 094°31'0 0.0
2018-Sep-19 09:30N 29°17' W 094°31'0 0.0
2018-Sep-19 08:57N 29°17' W 094°31'0 0.0
2018-Sep-19 08:30N 29°17' W 094°31'0 0.0
2018-Sep-19 07:54N 29°17' W 094°31'0 0.0
2018-Sep-19 07:30N 29°17' W 094°31'0 0.2
2018-Sep-19 07:03N 29°17' W 094°31'0 0.8
2018-Sep-19 07:00N 29°17' W 094°31'2 4.6
2018-Sep-19 06:28N 29°15' W 094°31'2412.2
2018-Sep-19 04:30N 28°51' W 094°25'30 4.0
2018-Sep-18 21:03N 29°19' W 094°38'011.8
2018-Sep-18 21:00N 29°19' W 094°39'713.0
2018-Sep-18 20:30N 29°21' W 094°46'613.4
2018-Sep-18 20:03N 29°25' W 094°50'113.4
2018-Sep-18 20:00N 29°26' W 094°50'612.8
2018-Sep-18 19:30N 29°32' W 094°54'612.6
2018-Sep-18 19:03N 29°36' W 094°57'112.0
2018-Sep-18 19:00N 29°37' W 094°57'50158037.6
2018-Sep-18 18:23N 43°49' E 007°47'501414771.9
2018-Sep-18 18:03N 29°44' W 095°04'010.4
2018-Sep-18 18:00N 29°45' W 095°04'8 0.6
2018-Sep-18 05:01N 29°38' W 094°58'012.5
2018-Sep-18 05:00N 29°38' W 094°58'612.8
2018-Sep-18 04:30N 29°33' W 094°54'1312.9
2018-Sep-18 03:31N 29°21' W 094°47'4 8.0
2018-Sep-18 03:03N 29°25' W 094°49'112.7
2018-Sep-18 03:00N 29°25' W 094°50'713.0
2018-Sep-18 02:30N 29°31' W 094°53'613.1
2018-Sep-18 02:03N 29°36' W 094°57'112.9
2018-Sep-18 02:00N 29°36' W 094°57'610.8
2018-Sep-18 01:28N 29°42' W 094°60'4 8.8
2018-Sep-18 01:03N 29°44' W 095°03'1 9.8
2018-Sep-18 01:00N 29°44' W 095°04'7 0.2
2018-Sep-16 16:01N 29°39' W 094°58'0 7.4
2018-Sep-16 16:00N 29°39' W 094°58'4 8.7
2018-Sep-16 15:30N 29°35' W 094°56'50151452.8
2018-Sep-16 12:03N 43°49' E 007°47'0 0.0
2018-Sep-16 12:01N 43°49' E 007°47'0 0.0
2018-Sep-16 11:30N 43°49' E 007°47'0 0.0
2018-Sep-16 11:02N 43°49' E 007°47'0 0.2
2018-Sep-16 11:00N 43°49' E 007°47'0 0.0
2018-Sep-16 10:28N 43°49' E 007°47'0 0.0
2018-Sep-16 09:29N 43°49' E 007°47'0 0.0
2018-Sep-16 08:52N 43°49' E 007°47'0 0.0
2018-Sep-16 08:30N 43°49' E 007°47'500910327.7
2018-Sep-16 08:01N 29°18' W 094°33'500910707.9
2018-Sep-16 07:33N 43°49' E 007°47'0 0.0
2018-Sep-16 07:18N 43°49' E 007°47'0 0.0
2018-Sep-16 07:03N 43°49' E 007°47'0 0.0
2018-Sep-16 06:58N 43°49' E 007°47'0 0.0
2018-Sep-16 06:30N 43°49' E 007°47'0 0.0
2018-Sep-16 06:03N 43°49' E 007°47'0 0.1
2018-Sep-16 06:01N 43°49' E 007°47'0 0.0
2018-Sep-16 05:30N 43°49' E 007°47'0 0.0
2018-Sep-16 05:02N 43°49' E 007°47'0 0.0
2018-Sep-16 04:59N 43°49' E 007°47'0 0.0
2018-Sep-16 04:30N 43°49' E 007°47'0 0.0
2018-Sep-16 03:00N 43°49' E 007°47'0 0.0
2018-Sep-16 02:30N 43°49' E 007°47'0 0.0
2018-Sep-16 02:00N 43°49' E 007°47'0 0.0
2018-Sep-16 01:29N 43°49' E 007°47'0 0.0
2018-Sep-16 00:55N 43°49' E 007°47'0 0.0
2018-Sep-16 00:21N 43°49' E 007°47'0 0.0
2018-Sep-15 23:01N 43°49' E 007°47'0 0.0
2018-Sep-15 23:01N 43°49' E 007°47'0 0.0
2018-Sep-15 21:31N 43°49' E 007°47'50105994.3
2018-Sep-15 20:40N 29°18' W 094°35'211.0
2018-Sep-15 20:29N 29°18' W 094°37'512.0
2018-Sep-15 20:03N 29°21' W 094°43'112.7
2018-Sep-15 20:00N 29°21' W 094°43'611.5
2018-Sep-15 19:30N 29°24' W 094°49'511.5
2018-Sep-15 19:03N 29°28' W 094°51'111.1
2018-Sep-15 19:00N 29°29' W 094°52'611.8
2018-Sep-15 18:30N 29°34' W 094°55'4 9.5
2018-Sep-15 18:03N 29°37' W 094°59'0 8.7
2018-Sep-15 18:00N 29°37' W 094°59'2 3.9
2018-Sep-15 17:30N 29°37' W 095°02'0 0.0
2018-Sep-15 17:03N 29°37' W 095°02'0 0.0
2018-Sep-15 17:00N 29°37' W 095°02'0 0.0
2018-Sep-15 16:30N 29°37' W 095°02'50186848.0
2018-Sep-15 15:46N 43°49' E 007°47'0 0.0
2018-Sep-15 15:30N 43°49' E 007°47'0 0.0
2018-Sep-15 15:00N 43°49' E 007°47'0 0.0
2018-Sep-15 14:04N 43°49' E 007°47'0 0.0
2018-Sep-15 14:01N 43°49' E 007°47'0 0.0
2018-Sep-15 13:30N 43°49' E 007°47'0 0.0
2018-Sep-15 13:04N 43°49' E 007°47'0 0.0
2018-Sep-15 13:00N 43°49' E 007°47'0 0.0
2018-Sep-15 12:30N 43°49' E 007°47'0 0.0
2018-Sep-15 12:03N 43°49' E 007°47'0 0.0
2018-Sep-15 12:00N 43°49' E 007°47'0 0.0
2018-Sep-15 11:30N 43°49' E 007°47'0 0.0
2018-Sep-15 11:03N 43°49' E 007°47'0 0.0
2018-Sep-15 11:00N 43°49' E 007°47'0 0.0
2018-Sep-15 10:30N 43°49' E 007°47'0 0.0
2018-Sep-15 10:03N 43°49' E 007°47'0 0.0
2018-Sep-15 10:00N 43°49' E 007°47'0 0.0
2018-Sep-15 09:31N 43°49' E 007°47'0 0.0
2018-Sep-15 09:03N 43°49' E 007°47'0 0.0
2018-Sep-15 09:00N 43°49' E 007°47'0 0.0
2018-Sep-15 08:31N 43°49' E 007°47'0 0.0
2018-Sep-15 08:04N 43°49' E 007°47'0 0.0
2018-Sep-15 08:00N 43°49' E 007°47'0 0.0
2018-Sep-15 07:31N 43°49' E 007°47'0 0.0
2018-Sep-15 07:03N 43°49' E 007°47'0 0.0
2018-Sep-15 07:00N 43°49' E 007°47'0 0.0
2018-Sep-15 06:30N 43°49' E 007°47'0 0.0
2018-Sep-15 06:04N 43°49' E 007°47'0 0.0
2018-Sep-15 05:59N 43°49' E 007°47'0 0.0
2018-Sep-15 05:30N 43°49' E 007°47'0 0.0
2018-Sep-15 04:30N 43°49' E 007°47'0 0.0
2018-Sep-15 04:03N 43°49' E 007°47'0 0.0
2018-Sep-15 04:00N 43°49' E 007°47'0 0.0
2018-Sep-15 03:30N 43°49' E 007°47'0 0.0
2018-Sep-15 03:04N 43°49' E 007°47'0 0.0
2018-Sep-15 03:01N 43°49' E 007°47'0 0.0
2018-Sep-15 02:30N 43°49' E 007°47'0 0.0
2018-Sep-15 02:03N 43°49' E 007°47'0 0.0
2018-Sep-15 02:00N 43°49' E 007°47'0 0.0
2018-Sep-15 01:30N 43°49' E 007°47'0 0.0
2018-Sep-15 01:04N 43°49' E 007°47'0 0.0
2018-Sep-15 01:00N 43°49' E 007°47'501810030.3
2018-Sep-15 00:30N 29°37' W 095°01'2 4.8
2018-Sep-15 00:03N 29°37' W 094°59'0 9.8
2018-Sep-15 00:00N 29°37' W 094°58'4 7.7
2018-Sep-14 23:30N 29°41' W 094°59'4 9.2
2018-Sep-14 23:03N 29°44' W 095°02'0 9.9
2018-Sep-14 23:00N 29°44' W 095°03'50145262.3
2018-Sep-14 22:03N 43°49' E 007°47'0 0.0
2018-Sep-14 21:59N 43°49' E 007°47'0 0.0
2018-Sep-13 17:26N 43°49' E 007°47'0 0.0
2018-Sep-13 17:02N 43°49' E 007°47'0 0.0
2018-Sep-13 17:00N 43°49' E 007°47'50139993.7
2018-Sep-13 16:30N 29°42' W 095°01'511.0
2018-Sep-13 16:02N 29°38' W 094°58'501463338.0
2018-Sep-13 15:58N 43°49' E 007°47'501511062.9
2018-Sep-13 15:30N 29°31' W 094°53'712.8
2018-Sep-13 14:59N 29°25' W 094°50'  
Track history (hours):
 
Tides and Currents Weather Stations Pressure Air Temp Water Temp Dewpoint Dewpoint Depression Visibility Wind Speed Wind Dir Waves Ship Positions

Glory Ace

Last reported at 2018-Sep-21 01:26 UTC. Time now 2018-Sep-21 02:09 UTC.
Position N 29°44' W 095°02'.

Length 190 m; draft 10.8 m.

Type: Cargo ship. MMSI: 357130000.

Date/timePositionNaut miles runAvg speedWind from/ knotsBaromVisibWave heightAir tempDewpointWater temp
2018-Sep-21 01:26N 29°44' W 095°02'3 7.7
2018-Sep-21 01:02N 29°46' W 095°05'0 9.3
2018-Sep-21 01:00N 29°46' W 095°05'5014182.3
2018-Sep-19 21:30N 43°49' E 007°47'501310196.4
2018-Sep-19 21:01N 29°43' W 095°01'0 7.2
2018-Sep-19 21:00N 29°43' W 095°01'5 9.3
2018-Sep-19 20:30N 29°39' W 094°58'511.8
2018-Sep-19 20:03N 29°35' W 094°56'111.3
2018-Sep-19 20:00N 29°34' W 094°55'1312.9
2018-Sep-19 19:00N 29°22' W 094°48'50185361.5
2018-Sep-19 18:04N 43°49' E 007°47'501199665.4
2018-Sep-19 18:00N 29°18' W 094°36'50115213.7
2018-Sep-19 17:03N 43°49' E 007°47'0 0.0
2018-Sep-19 17:00N 43°49' E 007°47'0 0.0
2018-Sep-19 16:30N 43°49' E 007°47'0 0.0
2018-Sep-19 15:03N 43°49' E 007°47'50084988.2
2018-Sep-19 14:03N 29°17' W 094°31'0 0.0
2018-Sep-19 13:30N 29°17' W 094°31'0 0.0
2018-Sep-19 10:30N 29°17' W 094°31'0 0.0
2018-Sep-19 10:00N 29°17' W 094°31'0 0.0
2018-Sep-19 09:30N 29°17' W 094°31'0 0.0
2018-Sep-19 08:57N 29°17' W 094°31'0 0.0
2018-Sep-19 08:30N 29°17' W 094°31'0 0.0
2018-Sep-19 07:54N 29°17' W 094°31'0 0.0
2018-Sep-19 07:30N 29°17' W 094°31'0 0.2
2018-Sep-19 07:03N 29°17' W 094°31'0 0.8
2018-Sep-19 07:00N 29°17' W 094°31'2 4.6
2018-Sep-19 06:28N 29°15' W 094°31'2412.2
2018-Sep-19 04:30N 28°51' W 094°25'30 4.0
2018-Sep-18 21:03N 29°19' W 094°38'011.8
2018-Sep-18 21:00N 29°19' W 094°39'713.0
2018-Sep-18 20:30N 29°21' W 094°46'613.4
2018-Sep-18 20:03N 29°25' W 094°50'113.4
2018-Sep-18 20:00N 29°26' W 094°50'612.8
2018-Sep-18 19:30N 29°32' W 094°54'612.6
2018-Sep-18 19:03N 29°36' W 094°57'112.0
2018-Sep-18 19:00N 29°37' W 094°57'50158037.6
2018-Sep-18 18:23N 43°49' E 007°47'501414771.9
2018-Sep-18 18:03N 29°44' W 095°04'010.4
2018-Sep-18 18:00N 29°45' W 095°04'8 0.6
2018-Sep-18 05:01N 29°38' W 094°58'012.5
2018-Sep-18 05:00N 29°38' W 094°58'612.8
2018-Sep-18 04:30N 29°33' W 094°54'1312.9
2018-Sep-18 03:31N 29°21' W 094°47'4 8.0
2018-Sep-18 03:03N 29°25' W 094°49'112.7
2018-Sep-18 03:00N 29°25' W 094°50'713.0
2018-Sep-18 02:30N 29°31' W 094°53'613.1
2018-Sep-18 02:03N 29°36' W 094°57'112.9
2018-Sep-18 02:00N 29°36' W 094°57'610.8
2018-Sep-18 01:28N 29°42' W 094°60'4 8.8
2018-Sep-18 01:03N 29°44' W 095°03'1 9.8
2018-Sep-18 01:00N 29°44' W 095°04'7 0.2
2018-Sep-16 16:01N 29°39' W 094°58'0 7.4
2018-Sep-16 16:00N 29°39' W 094°58'4 8.7
2018-Sep-16 15:30N 29°35' W 094°56'50151452.8
2018-Sep-16 12:03N 43°49' E 007°47'0 0.0
2018-Sep-16 12:01N 43°49' E 007°47'0 0.0
2018-Sep-16 11:30N 43°49' E 007°47'0 0.0
2018-Sep-16 11:02N 43°49' E 007°47'0 0.2
2018-Sep-16 11:00N 43°49' E 007°47'0 0.0
2018-Sep-16 10:28N 43°49' E 007°47'0 0.0
2018-Sep-16 09:29N 43°49' E 007°47'0 0.0
2018-Sep-16 08:52N 43°49' E 007°47'0 0.0
2018-Sep-16 08:30N 43°49' E 007°47'500910327.7
2018-Sep-16 08:01N 29°18' W 094°33'500910707.9
2018-Sep-16 07:33N 43°49' E 007°47'0 0.0
2018-Sep-16 07:18N 43°49' E 007°47'0 0.0
2018-Sep-16 07:03N 43°49' E 007°47'0 0.0
2018-Sep-16 06:58N 43°49' E 007°47'0 0.0
2018-Sep-16 06:30N 43°49' E 007°47'0 0.0
2018-Sep-16 06:03N 43°49' E 007°47'0 0.1
2018-Sep-16 06:01N 43°49' E 007°47'0 0.0
2018-Sep-16 05:30N 43°49' E 007°47'0 0.0
2018-Sep-16 05:02N 43°49' E 007°47'0 0.0
2018-Sep-16 04:59N 43°49' E 007°47'0 0.0
2018-Sep-16 04:30N 43°49' E 007°47'0 0.0
2018-Sep-16 03:00N 43°49' E 007°47'0 0.0
2018-Sep-16 02:30N 43°49' E 007°47'0 0.0
2018-Sep-16 02:00N 43°49' E 007°47'0 0.0
2018-Sep-16 01:29N 43°49' E 007°47'0 0.0
2018-Sep-16 00:55N 43°49' E 007°47'0 0.0
2018-Sep-16 00:21N 43°49' E 007°47'0 0.0
2018-Sep-15 23:01N 43°49' E 007°47'0 0.0
2018-Sep-15 23:01N 43°49' E 007°47'0 0.0
2018-Sep-15 21:31N 43°49' E 007°47'50105994.3
2018-Sep-15 20:40N 29°18' W 094°35'211.0
2018-Sep-15 20:29N 29°18' W 094°37'512.0
2018-Sep-15 20:03N 29°21' W 094°43'112.7
2018-Sep-15 20:00N 29°21' W 094°43'611.5
2018-Sep-15 19:30N 29°24' W 094°49'511.5
2018-Sep-15 19:03N 29°28' W 094°51'111.1
2018-Sep-15 19:00N 29°29' W 094°52'611.8
2018-Sep-15 18:30N 29°34' W 094°55'4 9.5
2018-Sep-15 18:03N 29°37' W 094°59'0 8.7
2018-Sep-15 18:00N 29°37' W 094°59'2 3.9
2018-Sep-15 17:30N 29°37' W 095°02'0 0.0
2018-Sep-15 17:03N 29°37' W 095°02'0 0.0
2018-Sep-15 17:00N 29°37' W 095°02'0 0.0
2018-Sep-15 16:30N 29°37' W 095°02'50186848.0
2018-Sep-15 15:46N 43°49' E 007°47'0 0.0
2018-Sep-15 15:30N 43°49' E 007°47'0 0.0
2018-Sep-15 15:00N 43°49' E 007°47'0 0.0
2018-Sep-15 14:04N 43°49' E 007°47'0 0.0
2018-Sep-15 14:01N 43°49' E 007°47'0 0.0
2018-Sep-15 13:30N 43°49' E 007°47'0 0.0
2018-Sep-15 13:04N 43°49' E 007°47'0 0.0
2018-Sep-15 13:00N 43°49' E 007°47'0 0.0
2018-Sep-15 12:30N 43°49' E 007°47'0 0.0
2018-Sep-15 12:03N 43°49' E 007°47'0 0.0
2018-Sep-15 12:00N 43°49' E 007°47'0 0.0
2018-Sep-15 11:30N 43°49' E 007°47'0 0.0
2018-Sep-15 11:03N 43°49' E 007°47'0 0.0
2018-Sep-15 11:00N 43°49' E 007°47'0 0.0
2018-Sep-15 10:30N 43°49' E 007°47'0 0.0
2018-Sep-15 10:03N 43°49' E 007°47'0 0.0
2018-Sep-15 10:00N 43°49' E 007°47'0 0.0
2018-Sep-15 09:31N 43°49' E 007°47'0 0.0
2018-Sep-15 09:03N 43°49' E 007°47'0 0.0
2018-Sep-15 09:00N 43°49' E 007°47'0 0.0
2018-Sep-15 08:31N 43°49' E 007°47'0 0.0
2018-Sep-15 08:04N 43°49' E 007°47'0 0.0
2018-Sep-15 08:00N 43°49' E 007°47'0 0.0
2018-Sep-15 07:31N 43°49' E 007°47'0 0.0
2018-Sep-15 07:03N 43°49' E 007°47'0 0.0
2018-Sep-15 07:00N 43°49' E 007°47'0 0.0
2018-Sep-15 06:30N 43°49' E 007°47'0 0.0
2018-Sep-15 06:04N 43°49' E 007°47'0 0.0
2018-Sep-15 05:59N 43°49' E 007°47'0 0.0
2018-Sep-15 05:30N 43°49' E 007°47'0 0.0
2018-Sep-15 04:30N 43°49' E 007°47'0 0.0
2018-Sep-15 04:03N 43°49' E 007°47'0 0.0
2018-Sep-15 04:00N 43°49' E 007°47'0 0.0
2018-Sep-15 03:30N 43°49' E 007°47'0 0.0
2018-Sep-15 03:04N 43°49' E 007°47'0 0.0
2018-Sep-15 03:01N 43°49' E 007°47'0 0.0
2018-Sep-15 02:30N 43°49' E 007°47'0 0.0
2018-Sep-15 02:03N 43°49' E 007°47'0 0.0
2018-Sep-15 02:00N 43°49' E 007°47'0 0.0
2018-Sep-15 01:30N 43°49' E 007°47'0 0.0
2018-Sep-15 01:04N 43°49' E 007°47'0 0.0
2018-Sep-15 01:00N 43°49' E 007°47'501810030.3
2018-Sep-15 00:30N 29°37' W 095°01'2 4.8
2018-Sep-15 00:03N 29°37' W 094°59'0 9.8
2018-Sep-15 00:00N 29°37' W 094°58'4 7.7
2018-Sep-14 23:30N 29°41' W 094°59'4 9.2
2018-Sep-14 23:03N 29°44' W 095°02'0 9.9
2018-Sep-14 23:00N 29°44' W 095°03'50145262.3
2018-Sep-14 22:03N 43°49' E 007°47'0 0.0
2018-Sep-14 21:59N 43°49' E 007°47'0 0.0
2018-Sep-13 17:26N 43°49' E 007°47'0 0.0
2018-Sep-13 17:02N 43°49' E 007°47'0 0.0
2018-Sep-13 17:00N 43°49' E 007°47'50139993.7
2018-Sep-13 16:30N 29°42' W 095°01'511.0
2018-Sep-13 16:02N 29°38' W 094°58'501463338.0
2018-Sep-13 15:58N 43°49' E 007°47'501511062.9
2018-Sep-13 15:30N 29°31' W 094°53'712.8
2018-Sep-13 14:59N 29°25' W 094°50'  

Dump ship's entire track history